Phuket, Thailand

2:02 PM ICT on September 03, 2014 (GMT +0700)
Phuket International | Change Station
CLOSE
Current Station
Airport
Location: Phuket,
Elevation: 30 ft
Nearby Weather Stations

Elev 30 ft 8.11 °N, 98.32 °E | Updated 32 minutes ago

Partly Cloudy
Partly Cloudy
90 °F
Feels Like 100 °F
N
9
Wind Variable Wind from West

Today
High -- | Low -- °F
--% Chance of Precip.
Yesterday
High -- | Low -- °F
Precip. -- in
6:18 AM 6:33 PM
First Quarter, 59% visible
Pressure 29.86 in
Visibility 6.2 miles
Clouds Few 2000 ft
Heat Index 100 °F
Dew Point 75 °F
Humidity 62%
Rainfall 0.00 in
Snow Depth Not available.
UV 15 out of 12
Pollen Not available.
Air Quality Not available.
Flu Activity Not available.
METAR VTSP 030630Z 28008KT 9999 FEW020 32/24 Q1011 A2985 NOSIG

More Conditions Fewer Conditions

Pressure 29.86 in
Visibility 6.2 miles
Clouds Few 2000 ft
Heat Index 100 °F
Dew Point 75 °F
Humidity 62%
Rainfall 0.00 in
Snow Depth Not available.
UV 15 out of 12
Pollen Not available.
Air Quality Not available.
Flu Activity Not available.
METAR VTSP 030630Z 28008KT 9999 FEW020 32/24 Q1011 A2985 NOSIG

More Conditions Fewer Conditions

10-Day Weather Forecast

Almanac

Astronomy

Sep. 03, 2014 Rise Set
Actual Time 6:18 AM ICT 6:33 PM ICT
Civil Twilight 5:57 AM ICT 6:54 PM ICT
Nautical Twilight 5:32 AM ICT 7:19 PM ICT
Astronomical Twilight 5:08 AM ICT 7:44 PM ICT
Moon 1:10 PM ICT 12:18 AM ICT
Length of Visible Light 12h 57m
Length of Day
12h 15m
Tomorrow will be 0m 27s shorter.
First Quarter, 59% of the Moon is Illuminated
Today
First Quarter
Sep 8
Full
Sep 15
Last Quarter
Sep 24
New
Oct 1
First Quarter

Yesterday's Extremes

Country Highs Country Lows

Community

WunderPhotos

Upload Photos

1,749,888 photos uploaded!

Nearby

Snow Depth

Not available.

Earthquake Activity

City Distance Mag. Time & Date
No recent earthquake activity has been reported nearby.
Minimum magnitude displayed is 2.5.

Coastal Water Temperatures

Place Temperature
No Stations Reporting

Nearby Weather Stations